Time;durP1;ratioP1;P1;durP2;ratioP2;P2;SDS_P1;SDS_P2;PMS_P1;PMS_P2;Temp;Humidity;BMP_temperature;BMP_pressure;BME280_temperature;BME280_humidity;BME280_pressure;Samples;Min_cycle;Max_cycle;Signal;HPM_P1;HPM_P2
2021/03/31 00:00:24;;;;;;;0.60;0.60;;;7.10;99.90;;;;;;6212314;23;20564;-81
2021/03/31 00:02:52;;;;;;;0.60;0.60;;;6.90;99.90;;;;;;6212835;23;20168;-80
2021/03/31 00:05:18;;;;;;;0.60;0.60;;;7.00;99.90;;;;;;6212945;23;20271;-81
2021/03/31 00:07:44;;;;;;;0.60;0.60;;;6.80;99.90;;;;;;6211872;23;20180;-81
2021/03/31 00:10:29;;;;;;;0.60;0.60;;;6.90;99.90;;;;;;6212173;23;20180;-81
2021/03/31 00:12:55;;;;;;;0.60;0.60;;;6.80;99.90;;;;;;6212384;23;20163;-81
2021/03/31 00:15:23;;;;;;;0.60;0.60;;;6.60;99.90;;;;;;6212490;23;20579;-81
2021/03/31 00:17:49;;;;;;;0.60;0.60;;;6.00;99.90;;;;;;6212689;23;20566;-80
2021/03/31 00:20:17;;;;;;;0.60;0.60;;;6.20;99.90;;;;;;6212490;23;20176;-80
2021/03/31 00:22:43;;;;;;;0.60;0.60;;;6.20;99.90;;;;;;6211448;23;20209;-81
2021/03/31 00:25:11;;;;;;;0.60;0.60;;;6.00;99.90;;;;;;6215737;23;20196;-81
2021/03/31 00:27:37;;;;;;;0.60;0.60;;;6.20;99.90;;;;;;6219865;23;20176;-80
2021/03/31 00:30:07;;;;;;;0.60;0.60;;;5.90;99.90;;;;;;6219547;23;20187;-81
2021/03/31 00:32:34;;;;;;;0.60;0.60;;;6.30;99.90;;;;;;6218743;23;20173;-81
2021/03/31 00:35:01;;;;;;;0.60;0.60;;;6.30;99.90;;;;;;6217764;23;20197;-81
2021/03/31 00:37:30;;;;;;;0.60;0.60;;;6.20;99.90;;;;;;6218676;23;20391;-81
2021/03/31 00:39:56;;;;;;;0.60;0.60;;;6.30;99.90;;;;;;6222133;23;20176;-80
2021/03/31 00:42:22;;;;;;;0.60;0.60;;;6.00;99.90;;;;;;6220716;23;20172;-80
2021/03/31 00:44:48;;;;;;;0.60;0.60;;;6.60;99.90;;;;;;6220069;23;20172;-80
2021/03/31 00:47:15;;;;;;;0.60;0.60;;;5.60;99.90;;;;;;6222441;23;20200;-80
2021/03/31 00:49:42;;;;;;;0.60;0.60;;;5.90;99.90;;;;;;6223885;23;20198;-80
2021/03/31 00:52:09;;;;;;;0.60;0.60;;;5.90;99.90;;;;;;6225222;23;20197;-80
2021/03/31 00:54:36;;;;;;;0.60;0.60;;;5.80;99.90;;;;;;6227795;23;20271;-80
2021/03/31 00:57:02;;;;;;;0.60;0.60;;;5.80;99.90;;;;;;6226461;23;20176;-80
2021/03/31 00:59:29;;;;;;;0.60;0.60;;;5.80;99.90;;;;;;6224310;23;20180;-80
2021/03/31 01:01:56;;;;;;;0.60;0.60;;;;;;;;;;6223134;23;20173;-80
2021/03/31 01:04:23;;;;;;;0.60;0.60;;;5.70;99.90;;;;;;6222947;23;20195;-80
2021/03/31 01:06:50;;;;;;;0.60;0.60;;;6.40;99.90;;;;;;6223310;23;20184;-80
2021/03/31 01:09:17;;;;;;;0.60;0.60;;;;;;;;;;6223359;23;20196;-80
2021/03/31 01:11:50;;;;;;;0.50;0.50;;;5.80;99.90;;;;;;6223037;23;20229;-80
2021/03/31 01:14:24;;;;;;;0.60;0.60;;;9.60;99.90;;;;;;6223544;23;20270;-80
2021/03/31 01:16:54;;;;;;;0.52;0.52;;;6.40;99.90;;;;;;6223450;23;20171;-80
2021/03/31 01:19:38;;;;;;;0.60;0.60;;;4.80;99.90;;;;;;6223698;23;20617;-80
2021/03/31 01:22:37;;;;;;;0.60;0.60;;;5.00;99.90;;;;;;6221851;23;20227;-80
2021/03/31 01:25:16;;;;;;;0.60;0.60;;;6.10;99.90;;;;;;6216035;23;20165;-80
2021/03/31 01:28:05;;;;;;;0.60;0.60;;;5.50;99.90;;;;;;6215737;23;20199;-79
2021/03/31 01:30:39;;;;;;;0.60;0.60;;;5.60;99.90;;;;;;6214444;23;20176;-80
2021/03/31 01:33:34;;;;;;;0.60;0.60;;;5.40;99.90;;;;;;6217643;23;20168;-80
2021/03/31 01:36:01;;;;;;;0.60;0.60;;;5.60;99.90;;;;;;6218035;23;20184;-80
2021/03/31 01:38:28;;;;;;;0.60;0.60;;;5.30;99.90;;;;;;6220106;23;20180;-81
2021/03/31 01:40:56;;;;;;;0.60;0.60;;;5.40;99.90;;;;;;6220409;23;20183;-80
2021/03/31 01:43:24;;;;;;;0.60;0.60;;;5.40;99.90;;;;;;6221287;23;20182;-80
2021/03/31 01:45:54;;;;;;;0.60;0.60;;;5.50;99.90;;;;;;6220918;23;20617;-80
2021/03/31 01:48:25;;;;;;;0.60;0.60;;;6.30;99.90;;;;;;6230693;23;20186;-81
2021/03/31 01:50:56;;;;;;;0.60;0.60;;;5.50;99.90;;;;;;6237273;23;20648;-81
2021/03/31 01:53:23;;;;;;;0.60;0.60;;;6.40;99.90;;;;;;6214833;23;20505;-81
2021/03/31 01:55:51;;;;;;;0.60;0.60;;;4.80;99.90;;;;;;6215020;23;20196;-81
2021/03/31 01:58:19;;;;;;;0.60;0.60;;;5.70;99.90;;;;;;6215207;23;20179;-81
2021/03/31 02:00:49;;;;;;;0.60;0.60;;;5.80;99.90;;;;;;6214905;23;20258;-80
2021/03/31 02:03:18;;;;;;;0.57;0.57;;;5.80;99.90;;;;;;6216994;23;20157;-81
2021/03/31 02:05:45;;;;;;;0.60;0.60;;;5.80;99.90;;;;;;6222192;23;20181;-81
2021/03/31 02:08:12;;;;;;;0.60;0.60;;;6.30;99.90;;;;;;6221236;23;20179;-81
2021/03/31 02:10:40;;;;;;;0.60;0.60;;;5.40;99.90;;;;;;6219267;23;20168;-79
2021/03/31 02:13:07;;;;;;;0.60;0.60;;;5.20;99.90;;;;;;6219686;23;20187;-81
2021/03/31 02:15:34;;;;;;;0.60;0.60;;;5.20;99.90;;;;;;6220356;23;20200;-81
2021/03/31 02:18:06;;;;;;;0.60;0.60;;;5.40;99.90;;;;;;6220838;23;20176;-81
2021/03/31 02:20:33;;;;;;;0.60;0.60;;;5.40;99.90;;;;;;6224719;23;20168;-81
2021/03/31 02:23:01;;;;;;;0.60;0.60;;;5.30;99.90;;;;;;6226257;23;20169;-80
2021/03/31 02:25:28;;;;;;;0.60;0.60;;;5.30;99.90;;;;;;6217891;23;20198;-81
2021/03/31 02:27:54;;;;;;;0.50;0.50;;;5.90;99.90;;;;;;6217738;23;20180;-80
2021/03/31 02:30:23;;;;;;;0.60;0.60;;;5.20;99.90;;;;;;6218243;23;20231;-80
2021/03/31 02:32:53;;;;;;;0.60;0.60;;;4.90;99.90;;;;;;6218271;23;20230;-80
2021/03/31 02:35:22;;;;;;;0.60;0.60;;;5.10;99.90;;;;;;6219178;23;20523;-80
2021/03/31 02:37:51;;;;;;;0.60;0.60;;;6.80;99.90;;;;;;6219867;23;20168;-80
2021/03/31 02:40:19;;;;;;;0.60;0.60;;;4.60;99.90;;;;;;6219434;23;20189;-80
2021/03/31 02:42:48;;;;;;;0.50;0.50;;;6.00;99.90;;;;;;6226074;23;20173;-80
2021/03/31 02:45:17;;;;;;;0.50;0.50;;;7.90;99.90;;;;;;6225826;23;20239;-81
2021/03/31 02:47:46;;;;;;;0.60;0.60;;;5.30;99.90;;;;;;6226086;23;20524;-80
2021/03/31 02:50:15;;;;;;;0.60;0.60;;;8.10;99.90;;;;;;6223727;23;20302;-80
2021/03/31 02:52:44;;;;;;;0.60;0.60;;;4.80;99.90;;;;;;6225291;23;20196;-80
2021/03/31 02:55:12;;;;;;;0.60;0.60;;;3.60;99.90;;;;;;6223978;23;20197;-80
2021/03/31 02:57:39;;;;;;;0.50;0.50;;;5.10;99.90;;;;;;6223316;23;20218;-80
2021/03/31 03:00:08;;;;;;;0.55;0.55;;;4.20;99.90;;;;;;6224329;23;20179;-80
2021/03/31 03:02:36;;;;;;;0.60;0.60;;;5.40;99.90;;;;;;6226554;23;20210;-80
2021/03/31 03:05:04;;;;;;;0.60;0.60;;;2.80;99.90;;;;;;6227758;23;20177;-80
2021/03/31 03:07:33;;;;;;;0.60;0.60;;;6.00;99.90;;;;;;6225982;23;20179;-80
2021/03/31 03:10:00;;;;;;;0.60;0.60;;;4.10;99.90;;;;;;6228282;23;20177;-81
2021/03/31 03:12:27;;;;;;;0.60;0.60;;;7.00;99.90;;;;;;6229648;23;20179;-81
2021/03/31 03:14:55;;;;;;;0.60;0.60;;;7.80;99.90;;;;;;6224471;23;20247;-81
2021/03/31 03:17:22;;;;;;;0.60;0.60;;;4.20;99.90;;;;;;6222227;23;20184;-80
2021/03/31 03:19:49;;;;;;;0.60;0.60;;;6.30;99.90;;;;;;6220847;23;20183;-81
2021/03/31 03:22:18;;;;;;;0.60;0.60;;;5.60;99.90;;;;;;6221047;23;20210;-80
2021/03/31 03:24:46;;;;;;;0.60;0.60;;;6.80;99.90;;;;;;6221220;23;20187;-81
2021/03/31 03:27:15;;;;;;;0.60;0.60;;;8.40;99.90;;;;;;6222188;23;20334;-81
2021/03/31 03:29:44;;;;;;;0.60;0.60;;;5.40;99.90;;;;;;6220693;23;20429;-80
2021/03/31 03:32:11;;;;;;;0.60;0.60;;;5.80;99.90;;;;;;6227356;23;20567;-81
2021/03/31 03:34:38;;;;;;;0.60;0.60;;;5.50;99.90;;;;;;6225558;23;20226;-81
2021/03/31 03:37:12;;;;;;;0.60;0.60;;;8.00;99.90;;;;;;6224713;23;20183;-78
2021/03/31 03:39:39;;;;;;;0.60;0.60;;;4.50;99.90;;;;;;6090198;22;20203;-80
2021/03/31 03:42:07;;;;;;;0.60;0.60;;;5.50;99.90;;;;;;6097214;23;20175;-80
2021/03/31 03:44:33;;;;;;;0.60;0.60;;;4.40;99.90;;;;;;6086084;23;20225;-81
2021/03/31 03:47:00;;;;;;;0.60;0.60;;;4.70;99.90;;;;;;6092933;23;20186;-80
2021/03/31 03:49:26;;;;;;;0.50;0.50;;;5.90;99.90;;;;;;6093068;23;20384;-81
2021/03/31 03:51:53;;;;;;;0.60;0.60;;;6.60;99.90;;;;;;6092142;23;20211;-80
2021/03/31 03:54:20;;;;;;;0.50;0.50;;;4.20;99.90;;;;;;6090718;23;20188;-81
2021/03/31 03:56:47;;;;;;;0.60;0.60;;;5.40;99.90;;;;;;6089980;23;20185;-80
2021/03/31 03:59:21;;;;;;;0.60;0.60;;;4.60;99.90;;;;;;6089464;23;20175;-81
2021/03/31 04:01:48;;;;;;;0.60;0.60;;;5.00;99.90;;;;;;6089615;23;20175;-81
2021/03/31 04:04:15;;;;;;;0.50;0.50;;;5.20;99.90;;;;;;6091734;23;20186;-81
2021/03/31 04:06:41;;;;;;;0.60;0.60;;;5.80;99.90;;;;;;6095880;23;20460;-80
2021/03/31 04:09:08;;;;;;;0.60;0.60;;;7.10;99.90;;;;;;6095497;23;20179;-80
2021/03/31 04:11:37;;;;;;;0.60;0.60;;;4.50;99.90;;;;;;6096787;23;20237;-81
2021/03/31 04:14:05;;;;;;;0.60;0.60;;;3.40;99.90;;;;;;6097276;23;20182;-80
2021/03/31 04:16:33;;;;;;;0.50;0.50;;;5.10;99.90;;;;;;6094878;23;20191;-81
2021/03/31 04:19:02;;;;;;;0.60;0.60;;;8.70;99.90;;;;;;6094890;23;20183;-80
2021/03/31 04:21:30;;;;;;;0.60;0.60;;;7.20;99.90;;;;;;6094792;23;20367;-80
2021/03/31 04:23:57;;;;;;;0.50;0.50;;;5.10;99.90;;;;;;6094596;23;20190;-81
2021/03/31 04:26:24;;;;;;;0.60;0.60;;;4.40;99.90;;;;;;6095503;23;20180;-81
2021/03/31 04:28:52;;;;;;;0.60;0.60;;;3.10;99.90;;;;;;6094622;23;20180;-80
2021/03/31 04:31:20;;;;;;;0.60;0.60;;;4.20;99.90;;;;;;6095943;23;20502;-80
2021/03/31 04:33:47;;;;;;;0.60;0.60;;;3.40;99.90;;;;;;6096142;23;20225;-81
2021/03/31 04:36:13;;;;;;;0.60;0.60;;;3.60;99.90;;;;;;6095750;23;20207;-81
2021/03/31 04:38:45;;;;;;;0.60;0.60;;;2.00;99.90;;;;;;6096361;23;20275;-80
2021/03/31 04:41:11;;;;;;;0.60;0.60;;;4.30;99.90;;;;;;6095305;23;20200;-80
2021/03/31 04:43:37;;;;;;;0.50;0.50;;;3.90;99.90;;;;;;6093695;23;20187;-81
2021/03/31 04:46:07;;;;;;;0.60;0.60;;;3.50;99.90;;;;;;6092532;23;20307;-81
2021/03/31 04:48:34;;;;;;;0.60;0.60;;;4.40;99.90;;;;;;6091894;23;20186;-81
2021/03/31 04:51:01;;;;;;;0.60;0.60;;;3.10;99.90;;;;;;6090596;23;20656;-81
2021/03/31 04:53:27;;;;;;;0.57;0.57;;;4.70;99.90;;;;;;6095385;22;20371;-81
2021/03/31 04:55:54;;;;;;;0.60;0.60;;;3.30;99.90;;;;;;6089628;23;20199;-81
2021/03/31 04:58:20;;;;;;;0.60;0.60;;;1.80;99.90;;;;;;6089791;23;20754;-81
2021/03/31 05:00:46;;;;;;;0.60;0.60;;;3.10;99.90;;;;;;6089773;23;20179;-81
2021/03/31 05:03:13;;;;;;;0.60;0.60;;;3.30;99.90;;;;;;6089597;23;20179;-81
2021/03/31 05:05:40;;;;;;;0.52;0.52;;;6.90;99.90;;;;;;6088208;23;20180;-81
2021/03/31 05:08:06;;;;;;;0.60;0.60;;;3.40;99.90;;;;;;6088066;23;20176;-81
2021/03/31 05:10:34;;;;;;;0.60;0.60;;;3.60;99.90;;;;;;6088371;23;20179;-81
2021/03/31 05:13:01;;;;;;;0.60;0.60;;;3.40;99.90;;;;;;6089643;23;20183;-81
2021/03/31 05:15:27;;;;;;;0.60;0.60;;;3.80;99.90;;;;;;6093248;23;20517;-81
2021/03/31 05:17:54;;;;;;;0.60;0.60;;;3.60;99.90;;;;;;6093864;23;20189;-81
2021/03/31 05:20:21;;;;;;;0.60;0.60;;;3.70;99.90;;;;;;6095753;23;20227;-81
2021/03/31 05:22:47;;;;;;;0.60;0.60;;;3.90;99.90;;;;;;6098912;23;20205;-81
2021/03/31 05:25:14;;;;;;;0.60;0.60;;;4.20;99.90;;;;;;6098532;23;20227;-81
2021/03/31 05:27:40;;;;;;;0.50;0.50;;;3.90;99.90;;;;;;6101139;23;20176;-80
2021/03/31 05:30:08;;;;;;;0.60;0.60;;;4.10;99.90;;;;;;6094824;23;20179;-81
2021/03/31 05:32:35;;;;;;;0.60;0.60;;;3.90;99.90;;;;;;6087419;23;20175;-81
2021/03/31 05:35:02;;;;;;;0.60;0.60;;;3.60;99.90;;;;;;6087585;23;20199;-81
2021/03/31 05:37:29;;;;;;;0.60;0.60;;;3.80;99.90;;;;;;6087013;23;20671;-81
2021/03/31 05:39:55;;;;;;;0.50;0.50;;;4.00;99.90;;;;;;6086921;23;20206;-81
2021/03/31 05:42:21;;;;;;;0.60;0.60;;;4.20;99.90;;;;;;6090556;23;20174;-81
2021/03/31 05:44:48;;;;;;;0.55;0.55;;;4.60;99.90;;;;;;6094427;23;20640;-81
2021/03/31 05:47:20;;;;;;;0.60;0.60;;;4.10;99.90;;;;;;6093215;23;20178;-81
2021/03/31 05:49:47;;;;;;;0.60;0.60;;;4.40;99.90;;;;;;6094690;23;20246;-81
2021/03/31 05:52:17;;;;;;;0.57;0.57;;;4.40;99.90;;;;;;6090148;23;20223;-80
2021/03/31 05:54:51;;;;;;;0.60;0.60;;;4.50;99.90;;;;;;6093321;22;20221;-80
2021/03/31 05:57:18;;;;;;;0.60;0.60;;;4.80;99.90;;;;;;6113240;23;20222;-80
2021/03/31 05:59:46;;;;;;;0.50;0.50;;;4.10;99.90;;;;;;6102513;23;20190;-80
2021/03/31 06:02:15;;;;;;;0.60;0.60;;;7.70;99.90;;;;;;6105943;23;20193;-81
2021/03/31 06:04:44;;;;;;;0.60;0.60;;;7.80;99.90;;;;;;6112191;23;20183;-83
2021/03/31 06:07:11;;;;;;;0.60;0.60;;;8.80;99.90;;;;;;6109151;23;20179;-83
2021/03/31 06:15:29;;;;;;;0.52;0.52;;;10.50;99.90;;;;;;6107267;22;20211;-80
2021/03/31 06:18:20;;;;;;;0.60;0.60;;;10.00;99.90;;;;;;6057109;23;20190;-86
2021/03/31 06:20:54;;;;;;;0.60;0.60;;;9.80;99.90;;;;;;6117366;22;20186;-81
2021/03/31 06:23:50;;;;;;;0.60;0.60;;;9.40;99.90;;;;;;6118505;22;20155;-81
2021/03/31 06:36:41;;;;;;;0.60;0.60;;;7.60;99.90;;;;;;6071023;22;20209;-80
2021/03/31 06:39:31;;;;;;;0.60;0.60;;;9.10;99.90;;;;;;6101878;22;20211;-81
2021/03/31 06:44:53;;;;;;;0.60;0.60;;;7.70;99.90;;;;;;6106877;22;20213;-81
2021/03/31 06:47:26;;;;;;;0.60;0.60;;;7.90;99.90;;;;;;6115530;23;20163;-82
2021/03/31 06:55:17;;;;;;;0.55;0.55;;;8.30;99.90;;;;;;6106551;23;20588;-81
2021/03/31 07:00:24;;;;;;;0.60;0.60;;;8.70;99.90;;;;;;6096950;23;20221;-81
2021/03/31 07:03:04;;;;;;;0.60;0.60;;;10.30;99.90;;;;;;6114937;22;20155;-82
2021/03/31 07:13:27;;;;;;;0.60;0.60;;;9.50;99.90;;;;;;6083768;22;20255;-81
2021/03/31 07:21:13;;;;;;;0.60;0.60;;;9.90;99.90;;;;;;6078454;22;20217;-84
2021/03/31 07:23:42;;;;;;;0.60;0.60;;;10.30;99.90;;;;;;6103008;22;20954;-78
2021/03/31 07:26:09;;;;;;;0.60;0.60;;;10.40;99.90;;;;;;6103850;22;20175;-77
2021/03/31 07:28:44;;;;;;;0.60;0.60;;;10.00;99.90;;;;;;6094965;23;20183;-78
2021/03/31 07:31:31;;;;;;;0.60;0.60;;;11.90;99.90;;;;;;6098827;22;20240;-81
2021/03/31 07:34:19;;;;;;;0.60;0.60;;;13.30;99.90;;;;;;6104101;23;20167;-79
2021/03/31 07:39:25;;;;;;;0.60;0.60;;;11.00;99.90;;;;;;5996126;22;2411457;-82
2021/03/31 07:41:56;;;;;;;0.60;0.60;;;14.30;99.90;;;;;;6094912;22;20214;-80
2021/03/31 07:47:09;;;;;;;0.60;0.60;;;11.50;99.90;;;;;;6067537;22;20210;-81
2021/03/31 07:49:35;;;;;;;0.60;0.60;;;11.10;99.90;;;;;;6093939;23;20201;-82
2021/03/31 07:52:04;;;;;;;0.60;0.60;;;10.90;99.90;;;;;;6092692;23;20201;-82
2021/03/31 07:54:32;;;;;;;0.60;0.60;;;12.10;99.90;;;;;;6091717;23;20214;-82
2021/03/31 07:56:59;;;;;;;0.55;0.55;;;12.00;99.90;;;;;;6091378;23;20234;-81
2021/03/31 07:59:26;;;;;;;0.57;0.57;;;12.30;99.90;;;;;;6092007;23;20179;-81
2021/03/31 08:01:54;;;;;;;0.60;0.60;;;12.50;99.90;;;;;;6092835;23;20179;-82
2021/03/31 08:04:22;;;;;;;0.60;0.60;;;15.30;99.90;;;;;;6091706;23;20280;-82
2021/03/31 08:06:50;;;;;;;0.60;0.60;;;13.00;99.90;;;;;;6092028;23;20254;-82
2021/03/31 08:09:28;;;;;;;0.60;0.60;;;12.20;99.90;;;;;;6090274;23;20179;-81
2021/03/31 08:11:59;;;;;;;0.60;0.60;;;12.90;99.90;;;;;;6093561;23;20167;-83
2021/03/31 08:17:30;;;;;;;0.60;0.60;;;13.10;99.90;;;;;;6081815;22;20649;-82
2021/03/31 08:19:57;;;;;;;0.60;0.60;;;12.30;99.90;;;;;;6079586;23;20206;-84
2021/03/31 08:22:39;;;;;;;0.60;0.60;;;12.40;99.90;;;;;;6085493;23;20200;-84
2021/03/31 08:25:23;;;;;;;0.60;0.60;;;13.10;99.90;;;;;;6086625;23;20178;-83
2021/03/31 08:27:58;;;;;;;0.60;0.60;;;15.40;99.90;;;;;;6088951;23;20167;-84
2021/03/31 08:30:25;;;;;;;0.60;0.60;;;13.70;99.90;;;;;;6090605;23;20178;-85
2021/03/31 08:32:51;;;;;;;0.60;0.60;;;13.80;99.90;;;;;;6088179;23;20206;-85
2021/03/31 08:35:20;;;;;;;0.60;0.60;;;14.50;99.90;;;;;;6089664;23;20207;-85
2021/03/31 08:37:48;;;;;;;0.60;0.60;;;14.20;99.90;;;;;;6091238;23;20186;-85
2021/03/31 08:40:15;;;;;;;0.60;0.60;;;14.30;99.90;;;;;;6087955;23;20180;-85
2021/03/31 08:42:47;;;;;;;0.50;0.50;;;14.30;99.90;;;;;;6087951;23;20387;-85
2021/03/31 08:45:28;;;;;;;0.52;0.52;;;14.30;99.90;;;;;;6088039;23;20163;-86
2021/03/31 08:47:54;;;;;;;0.60;0.60;;;14.60;99.90;;;;;;6093313;23;20159;-84
2021/03/31 08:50:30;;;;;;;0.60;0.60;;;14.60;99.90;;;;;;6088873;23;20516;-84
2021/03/31 08:53:02;;;;;;;0.50;0.50;;;14.70;99.90;;;;;;6085753;23;20190;-85
2021/03/31 08:55:33;;;;;;;0.60;0.60;;;14.00;99.90;;;;;;6087917;23;20191;-84
2021/03/31 08:58:00;;;;;;;0.52;0.52;;;15.00;99.90;;;;;;6088578;23;20179;-84
2021/03/31 09:00:27;;;;;;;0.60;0.60;;;15.00;99.90;;;;;;6087846;23;20183;-85
2021/03/31 09:03:02;;;;;;;0.60;0.60;;;15.10;99.90;;;;;;6087979;23;20179;-85
2021/03/31 09:05:30;;;;;;;0.55;0.55;;;15.00;99.90;;;;;;6087482;23;20198;-85
2021/03/31 09:08:00;;;;;;;0.57;0.57;;;15.30;99.90;;;;;;6087784;23;20179;-85
2021/03/31 09:10:27;;;;;;;0.50;0.50;;;15.40;99.90;;;;;;6084234;23;20671;-84
2021/03/31 09:12:54;;;;;;;0.60;0.60;;;15.60;99.90;;;;;;6085375;23;20191;-84
2021/03/31 09:15:20;;;;;;;0.60;0.60;;;15.80;99.90;;;;;;6087024;23;20196;-85
2021/03/31 09:17:48;;;;;;;0.60;0.60;;;16.50;99.90;;;;;;6086569;23;20530;-85
2021/03/31 09:20:19;;;;;;;0.60;0.60;;;15.70;99.90;;;;;;6086487;23;20669;-85
2021/03/31 09:22:46;;;;;;;0.60;0.60;;;15.80;99.90;;;;;;6086991;23;20167;-85
2021/03/31 09:25:14;;;;;;;0.60;0.60;;;15.90;99.90;;;;;;6086715;23;20459;-85
2021/03/31 09:27:41;;;;;;;0.52;0.52;;;15.90;99.90;;;;;;6086498;23;20632;-85
2021/03/31 09:30:11;;;;;;;0.60;0.60;;;16.00;99.90;;;;;;6086578;23;20179;-84
2021/03/31 09:32:41;;;;;;;0.60;0.60;;;16.30;99.90;;;;;;6082442;23;20187;-84
2021/03/31 09:35:09;;;;;;;0.60;0.60;;;16.40;99.90;;;;;;6086595;23;20556;-84
2021/03/31 09:37:39;;;;;;;0.60;0.60;;;16.60;99.90;;;;;;6086927;23;20202;-84
2021/03/31 09:40:07;;;;;;;0.60;0.60;;;16.50;99.90;;;;;;6087231;23;20518;-83
2021/03/31 09:42:36;;;;;;;0.60;0.60;;;16.90;99.90;;;;;;6086961;23;20182;-83
2021/03/31 09:45:04;;;;;;;0.60;0.60;;;16.90;99.90;;;;;;6086856;23;20237;-84
2021/03/31 09:47:33;;;;;;;0.60;0.60;;;16.90;99.90;;;;;;6086629;23;20183;-84
2021/03/31 09:50:00;;;;;;;0.60;0.60;;;17.00;99.90;;;;;;6086508;23;20183;-84
2021/03/31 09:52:28;;;;;;;0.60;0.60;;;17.10;99.90;;;;;;6086598;23;20423;-84
2021/03/31 09:54:55;;;;;;;0.55;0.55;;;17.30;99.90;;;;;;6087429;23;20237;-83
2021/03/31 09:57:26;;;;;;;0.60;0.60;;;17.50;99.90;;;;;;6086927;23;20183;-83
2021/03/31 09:59:53;;;;;;;0.60;0.60;;;17.60;99.90;;;;;;6087510;23;20164;-84
2021/03/31 10:02:19;;;;;;;0.60;0.60;;;17.70;99.90;;;;;;6087840;23;20515;-84
2021/03/31 10:04:46;;;;;;;0.60;0.60;;;17.80;99.90;;;;;;6086147;23;20631;-84
2021/03/31 10:07:15;;;;;;;0.60;0.60;;;17.90;99.90;;;;;;6085444;23;20744;-84
2021/03/31 10:09:44;;;;;;;0.60;0.60;;;18.00;99.90;;;;;;6067346;23;20709;-84
2021/03/31 10:12:12;;;;;;;0.60;0.60;;;18.10;99.90;;;;;;6086485;23;20179;-84
2021/03/31 10:14:48;;;;;;;0.60;0.60;;;18.10;99.90;;;;;;6086081;23;20640;-86
2021/03/31 10:17:16;;;;;;;0.60;0.60;;;18.20;99.90;;;;;;6099998;23;20286;-83
2021/03/31 10:19:42;;;;;;;0.60;0.60;;;18.50;99.90;;;;;;6102488;22;20215;-82
2021/03/31 10:22:09;;;;;;;0.60;0.60;;;18.40;99.90;;;;;;6088206;22;20709;-81
2021/03/31 10:32:01;;;;;;;0.60;0.60;;;18.70;99.90;;;;;;6010141;23;20632;-88
2021/03/31 10:34:47;;;;;;;0.60;0.60;;;19.50;99.90;;;;;;5897420;24;20200;-87
2021/03/31 10:37:22;;;;;;;0.60;0.60;;;19.30;99.90;;;;;;5902549;24;20275;-86
2021/03/31 10:40:20;;;;;;;0.60;0.60;;;20.00;99.90;;;;;;6119670;23;20212;-87
2021/03/31 10:48:52;;;;;;;0.50;0.50;;;18.40;99.90;;;;;;6092763;23;20166;-87
2021/03/31 10:51:31;;;;;;;0.60;0.60;;;16.50;99.90;;;;;;6092083;23;20179;-87
2021/03/31 10:57:30;;;;;;;0.60;0.60;;;20.70;99.90;;;;;;6090664;23;20218;-88
2021/03/31 11:00:21;;;;;;;0.60;0.60;;;20.30;99.90;;;;;;6093657;23;20224;-87
2021/03/31 11:03:04;;;;;;;0.60;0.60;;;19.30;99.90;;;;;;6097011;23;20912;-87
2021/03/31 11:05:51;;;;;;;0.60;0.60;;;20.40;99.90;;;;;;6096993;23;20591;-86
2021/03/31 11:09:02;;;;;;;0.60;0.60;;;21.30;99.90;;;;;;6092611;23;20175;-87
2021/03/31 11:11:38;;;;;;;0.60;0.60;;;20.50;99.90;;;;;;6050288;23;20211;-86
2021/03/31 11:14:16;;;;;;;0.60;0.60;;;22.20;99.90;;;;;;6092242;23;20175;-86
2021/03/31 11:17:04;;;;;;;0.57;0.57;;;20.00;99.90;;;;;;6095062;23;20259;-87
2021/03/31 11:19:58;;;;;;;0.60;0.60;;;20.90;99.90;;;;;;6095408;23;20179;-87
2021/03/31 11:28:38;;;;;;;0.60;0.60;;;20.10;99.90;;;;;;6056352;23;20179;-87
2021/03/31 11:31:06;;;;;;;0.60;0.60;;;22.40;99.90;;;;;;6097830;23;20179;-86
2021/03/31 11:33:33;;;;;;;0.60;0.60;;;22.40;99.90;;;;;;6094838;23;20210;-84
2021/03/31 11:40:26;;;;;;;0.60;0.60;;;23.60;96.80;;;;;;6087952;23;20211;-88
2021/03/31 12:21:44;;;;;;;0.60;0.60;;;24.80;87.10;;;;;;5913246;24;20265;-90
2021/03/31 12:28:37;;;;;;;0.60;0.60;;;25.90;84.60;;;;;;6091667;23;20722;-89
2021/03/31 12:31:24;;;;;;;0.60;0.60;;;26.40;87.60;;;;;;6110869;23;20188;-88
2021/03/31 12:34:00;;;;;;;0.60;0.60;;;25.70;85.80;;;;;;6158502;23;20233;-88
2021/03/31 12:37:13;;;;;;;;;;;;;;;;;;;;;
2021/03/31 12:43:22;;;;;;;0.60;0.60;;;24.50;80.50;;;;;;6103024;23;20177;-87
2021/03/31 12:46:42;;;;;;;0.60;0.60;;;27.30;81.30;;;;;;5958663;23;20179;-86
2021/03/31 12:50:02;;;;;;;0.60;0.60;;;25.60;78.70;;;;;;6068878;23;20183;-86
2021/03/31 13:03:25;;;;;;;0.60;0.60;;;26.10;70.70;;;;;;6007718;23;20200;-87
2021/03/31 13:12:46;;;;;;;;;;;;;;;;;;;;;
2021/03/31 13:15:26;;;;;;;0.57;0.57;;;24.80;76.00;;;;;;6097615;23;20183;-86
2021/03/31 13:18:02;;;;;;;0.60;0.60;;;24.20;70.30;;;;;;6101627;23;20178;-88
2021/03/31 13:23:22;;;;;;;0.60;0.60;;;25.10;76.40;;;;;;6094468;23;20236;-88
2021/03/31 13:26:04;;;;;;;0.60;0.60;;;25.70;72.20;;;;;;6094871;23;20171;-88
2021/03/31 13:31:30;;;;;;;0.60;0.60;;;27.10;68.50;;;;;;6089684;23;20503;-87
2021/03/31 13:34:08;;;;;;;0.60;0.60;;;25.80;65.40;;;;;;6102043;23;20171;-87
2021/03/31 13:36:42;;;;;;;0.60;0.60;;;25.40;70.30;;;;;;6107875;23;20693;-87
2021/03/31 13:39:26;;;;;;;0.60;0.60;;;25.50;66.60;;;;;;6105975;23;20189;-87
2021/03/31 13:42:04;;;;;;;0.60;0.60;;;27.40;68.90;;;;;;6096837;23;20186;-88
2021/03/31 13:44:35;;;;;;;0.60;0.60;;;26.30;64.00;;;;;;6095234;23;20210;-87
2021/03/31 13:47:09;;;;;;;0.60;0.60;;;27.10;66.10;;;;;;6096370;23;20182;-87
2021/03/31 13:49:38;;;;;;;0.60;0.60;;;25.90;68.40;;;;;;6096976;23;20171;-87
2021/03/31 13:52:12;;;;;;;0.60;0.60;;;26.60;65.70;;;;;;6097838;23;20203;-87
2021/03/31 13:54:41;;;;;;;0.60;0.60;;;27.30;58.50;;;;;;6095212;23;20193;-88
2021/03/31 13:57:16;;;;;;;0.60;0.60;;;25.70;62.10;;;;;;6094901;23;20646;-88
2021/03/31 13:59:45;;;;;;;0.60;0.60;;;28.60;63.80;;;;;;6093451;23;20244;-88
2021/03/31 14:02:11;;;;;;;0.60;0.60;;;26.30;65.50;;;;;;6096990;23;20229;-88
2021/03/31 14:04:38;;;;;;;0.60;0.60;;;24.50;61.30;;;;;;6095127;23;20561;-88
2021/03/31 14:07:10;;;;;;;0.60;0.60;;;25.50;63.50;;;;;;6097826;23;20175;-89
2021/03/31 14:09:37;;;;;;;0.60;0.60;;;24.90;62.50;;;;;;6095184;23;20172;-88
2021/03/31 14:12:28;;;;;;;0.60;0.60;;;27.20;62.50;;;;;;6095659;23;20187;-89
2021/03/31 14:17:44;;;;;;;0.60;0.60;;;23.80;59.30;;;;;;6094807;23;20211;-89
2021/03/31 14:23:38;;;;;;;0.60;0.60;;;28.10;59.20;;;;;;6035650;23;20195;-89
2021/03/31 15:49:50;;;;;;;0.60;0.60;;;24.80;52.90;;;;;;6064112;23;20875;-88
2021/03/31 15:52:23;;;;;;;0.60;0.60;;;24.80;52.80;;;;;;5923052;24;20206;-87
2021/03/31 15:55:06;;;;;;;0.60;0.60;;;24.50;54.60;;;;;;6041514;23;20184;-88
2021/03/31 15:58:24;;;;;;;0.60;0.60;;;24.70;52.70;;;;;;6064068;23;20234;-88
2021/03/31 16:01:16;;;;;;;;;;;;;;;;;;;;;
2021/03/31 16:04:02;;;;;;;0.60;0.60;;;24.10;53.60;;;;;;6047368;23;20189;-87
2021/03/31 16:10:05;;;;;;;0.60;0.60;;;24.70;54.20;;;;;;6003283;23;20253;-87
2021/03/31 16:23:25;;;;;;;0.60;0.60;;;23.20;55.40;;;;;;5814671;24;20526;-87
2021/03/31 16:26:04;;;;;;;0.60;0.60;;;24.00;55.90;;;;;;5909759;23;20181;-86
2021/03/31 16:42:38;;;;;;;0.60;0.60;;;24.50;56.60;;;;;;5868716;24;20510;-87
2021/03/31 16:45:19;;;;;;;0.60;0.60;;;23.40;56.20;;;;;;5881718;24;20183;-89
2021/03/31 16:48:15;;;;;;;0.60;0.60;;;23.10;56.00;;;;;;6044800;23;20186;-89
2021/03/31 16:50:55;;;;;;;0.60;0.60;;;23.10;57.90;;;;;;6096112;23;20182;-88
2021/03/31 16:53:33;;;;;;;0.60;0.60;;;23.20;58.70;;;;;;6099431;23;20198;-88
2021/03/31 16:56:10;;;;;;;0.60;0.60;;;22.20;56.40;;;;;;6098383;23;20273;-89
2021/03/31 17:02:25;;;;;;;0.60;0.60;;;22.70;56.70;;;;;;6099726;23;20193;-88
2021/03/31 17:08:33;;;;;;;0.60;0.60;;;22.20;58.60;;;;;;6104797;23;20199;-86
2021/03/31 17:11:35;;;;;;;0.60;0.60;;;21.90;57.80;;;;;;6110646;23;20201;-88
2021/03/31 17:14:58;;;;;;;0.60;0.60;;;22.40;59.50;;;;;;6184930;23;20176;-87
2021/03/31 19:23:35;;;;;;;0.60;0.60;;;14.00;92.70;;;;;;5929005;24;20222;-87
2021/03/31 19:46:59;;;;;;;;;;;;;;;;;;;;;
2021/03/31 19:50:10;;;;;;;0.60;0.60;;;11.50;94.60;;;;;;5890153;24;20186;-88
2021/03/31 20:13:32;;;;;;;0.60;0.60;;;15.10;98.10;;;;;;6078155;23;20212;-81
2021/03/31 20:15:58;;;;;;;0.60;0.60;;;12.50;97.70;;;;;;6148533;23;20170;-81
2021/03/31 20:18:25;;;;;;;0.60;0.60;;;12.60;97.60;;;;;;6148565;23;20182;-79
2021/03/31 20:20:52;;;;;;;0.60;0.60;;;12.70;97.20;;;;;;6148971;23;20206;-82
2021/03/31 20:23:18;;;;;;;0.60;0.60;;;12.70;96.30;;;;;;6147381;23;20205;-82
2021/03/31 20:25:44;;;;;;;0.60;0.60;;;12.70;97.10;;;;;;6147879;23;20208;-82
2021/03/31 20:28:10;;;;;;;0.55;0.55;;;12.50;97.20;;;;;;6148723;23;20627;-81
2021/03/31 20:30:37;;;;;;;0.60;0.60;;;12.40;96.30;;;;;;6144493;23;20576;-81
2021/03/31 20:33:04;;;;;;;0.60;0.60;;;12.70;95.60;;;;;;6144317;23;20189;-81
2021/03/31 20:35:32;;;;;;;0.60;0.60;;;12.10;95.50;;;;;;6143711;23;20256;-81
2021/03/31 20:37:59;;;;;;;0.60;0.60;;;12.10;97.30;;;;;;6143376;23;20208;-81
2021/03/31 20:40:25;;;;;;;0.60;0.60;;;12.00;97.80;;;;;;6144204;23;20222;-81